Time;durP1;ratioP1;P1;durP2;ratioP2;P2;SDS_P1;SDS_P2;PMS_P1;PMS_P2;Temp;Humidity;BMP_temperature;BMP_pressure;BME280_temperature;BME280_humidity;BME280_pressure;Samples;Min_cycle;Max_cycle;Signal;HPM_P1;HPM_P2
2023/11/10 00:00:12;;;;;;;72.00;40.40;;;;;;;4.94;100.00;101450.66;105842;1254;60466;-74
2023/11/10 00:02:40;;;;;;;63.90;40.60;;;;;;;4.94;100.00;101456.21;105762;1253;72696;-75
2023/11/10 00:05:08;;;;;;;60.60;40.50;;;;;;;4.93;100.00;101460.39;105753;1256;64056;-73
2023/11/10 00:07:35;;;;;;;68.40;43.30;;;;;;;4.91;100.00;101464.27;105801;1253;72658;-76
2023/11/10 00:10:04;;;;;;;66.10;43.10;;;;;;;4.89;100.00;101463.94;105829;1254;60540;-75
2023/11/10 00:12:32;;;;;;;65.00;41.40;;;;;;;4.88;100.00;101465.36;105809;1253;60524;-74
2023/11/10 00:14:58;;;;;;;59.70;39.50;;;;;;;4.86;100.00;101469.54;105818;1254;73719;-75
2023/11/10 00:17:25;;;;;;;60.80;38.60;;;;;;;4.84;100.00;101469.09;105796;1256;64214;-75
2023/11/10 00:19:52;;;;;;;61.40;38.80;;;;;;;4.83;100.00;101472.77;105739;1256;72580;-73
2023/11/10 00:22:20;;;;;;;59.70;39.40;;;;;;;4.82;100.00;101478.66;105830;1253;61162;-76
2023/11/10 00:24:47;;;;;;;65.70;40.60;;;;;;;4.80;100.00;101476.63;105752;1253;60799;-73
2023/11/10 00:27:14;;;;;;;63.00;39.40;;;;;;;4.78;100.00;101474.42;105798;1253;72387;-75
2023/11/10 00:29:41;;;;;;;61.70;40.20;;;;;;;4.76;100.00;101476.02;105832;1256;63804;-76
2023/11/10 00:32:09;;;;;;;57.00;36.50;;;;;;;4.75;100.00;101475.00;105744;1253;72785;-74
2023/11/10 00:34:36;;;;;;;57.30;38.00;;;;;;;4.73;100.00;101478.16;105842;1254;60667;-74
2023/11/10 00:37:04;;;;;;;58.80;39.80;;;;;;;4.71;100.00;101478.71;105764;1254;60633;-75
2023/11/10 00:39:31;;;;;;;57.40;38.80;;;;;;;4.70;100.00;101482.39;105836;1256;74239;-76
2023/11/10 00:41:58;;;;;;;56.20;38.60;;;;;;;4.69;100.00;101484.48;105823;1256;63910;-74
2023/11/10 00:44:27;;;;;;;54.60;37.40;;;;;;;4.68;100.00;101490.58;105910;1254;72767;-75
2023/11/10 00:46:54;;;;;;;56.50;39.20;;;;;;;4.66;100.00;101492.15;105714;1257;61209;-76
2023/11/10 00:49:22;;;;;;;56.10;37.10;;;;;;;4.65;100.00;101496.88;105807;1253;60796;-77
2023/11/10 00:51:49;;;;;;;58.90;38.90;;;;;;;4.63;100.00;101499.36;105703;1253;73852;-74
2023/11/10 00:54:16;;;;;;;61.00;38.30;;;;;;;4.60;100.00;101496.27;105639;1254;62525;-74
2023/11/10 00:56:44;;;;;;;56.40;35.70;;;;;;;4.59;100.00;101496.83;105615;1254;188701;-74
2023/11/10 01:00:15;;;;;;;53.40;38.10;;;;;;;4.59;100.00;101499.92;102734;1294;601041;-75
2023/11/10 01:02:44;;;;;;;59.90;39.00;;;;;;;4.56;100.00;101498.27;104877;1266;60366;-74
2023/11/10 01:05:14;;;;;;;55.40;38.50;;;;;;;4.56;100.00;101502.27;104877;1266;59575;-74
2023/11/10 01:07:44;;;;;;;66.10;37.70;;;;;;;4.55;100.00;101504.86;105267;1258;72227;-74
2023/11/10 01:10:13;;;;;;;58.60;38.50;;;;;;;4.53;100.00;101505.93;105437;1258;62488;-75
2023/11/10 01:12:40;;;;;;;69.80;39.40;;;;;;;4.53;100.00;101502.99;105411;1263;70407;-73
2023/11/10 01:15:11;;;;;;;58.30;38.30;;;;;;;4.52;100.00;101506.48;105279;1260;61076;-75
2023/11/10 01:17:40;;;;;;;59.20;38.70;;;;;;;4.52;100.00;101507.53;105567;1257;60422;-74
2023/11/10 01:20:10;;;;;;;56.30;37.90;;;;;;;4.52;100.00;101511.00;105387;1257;72764;-77
2023/11/10 01:22:38;;;;;;;58.70;37.90;;;;;;;4.51;100.00;101510.15;105495;1262;62464;-74
2023/11/10 01:25:07;;;;;;;59.00;38.00;;;;;;;4.49;100.00;101511.74;105541;1256;72710;-75
2023/11/10 01:27:34;;;;;;;62.00;38.60;;;;;;;4.48;100.00;101512.99;105598;1256;60914;-74
2023/11/10 01:30:02;;;;;;;55.00;36.40;;;;;;;4.45;100.00;101516.34;105859;1251;59626;-74
2023/11/10 01:32:30;;;;;;;54.90;38.10;;;;;;;4.42;100.00;101521.92;105789;1253;73713;-74
2023/11/10 01:34:58;;;;;;;57.40;38.60;;;;;;;4.39;100.00;101523.54;105857;1251;62472;-76
2023/11/10 01:37:26;;;;;;;50.00;33.90;;;;;;;4.36;100.00;101524.65;105648;1256;71748;-75
2023/11/10 01:39:54;;;;;;;46.40;33.30;;;;;;;4.30;100.00;101527.70;105902;1256;61646;-75
2023/11/10 01:42:22;;;;;;;54.90;34.60;;;;;;;4.25;100.00;101534.72;105704;1251;60042;-74
2023/11/10 01:44:50;;;;;;;53.40;34.50;;;;;;;4.19;100.00;101542.98;105749;1251;71796;-75
2023/11/10 01:47:17;;;;;;;51.10;34.20;;;;;;;4.12;100.00;101545.69;105647;1257;62578;-77
2023/11/10 01:49:45;;;;;;;54.10;34.20;;;;;;;4.05;100.00;101547.55;105574;1251;70777;-74
2023/11/10 01:52:14;;;;;;;54.40;34.60;;;;;;;4.01;100.00;101551.95;105981;1256;59668;-75
2023/11/10 01:54:42;;;;;;;56.20;35.50;;;;;;;3.95;100.00;101557.06;105912;1256;60135;-76
2023/11/10 01:57:10;;;;;;;52.10;34.60;;;;;;;3.91;100.00;101556.61;105725;1257;73049;-74
2023/11/10 01:59:39;;;;;;;52.90;35.50;;;;;;;3.87;100.00;101558.58;105681;1255;63941;-72
2023/11/10 02:02:08;;;;;;;49.50;34.50;;;;;;;3.83;100.00;101564.52;105905;1251;71411;-75
2023/11/10 02:04:36;;;;;;;52.70;36.50;;;;;;;3.80;100.00;101565.80;105825;1259;59675;-75
2023/11/10 02:07:04;;;;;;;59.50;35.80;;;;;;;3.76;100.00;101563.95;105604;1251;59705;-75
2023/11/10 02:09:32;;;;;;;61.80;37.80;;;;;;;3.73;100.00;101564.02;105756;1256;73072;-73
2023/11/10 02:12:00;;;;;;;64.70;38.70;;;;;;;3.73;100.00;101565.58;105723;1256;63731;-73
2023/11/10 02:14:27;;;;;;;70.50;47.00;;;;;;;3.75;100.00;101572.80;105613;1257;71429;-75
2023/11/10 02:16:55;;;;;;;60.30;39.50;;;;;;;3.77;100.00;101568.61;105841;1254;61024;-73
2023/11/10 02:19:23;;;;;;;52.90;36.90;;;;;;;3.80;100.00;101571.01;105854;1251;59975;-74
2023/11/10 02:21:50;;;;;;;64.10;40.10;;;;;;;3.81;100.00;101570.30;105657;1257;73092;-76
2023/11/10 02:24:18;;;;;;;61.70;38.10;;;;;;;3.80;100.00;101573.94;105607;1253;62351;-75
2023/11/10 02:26:45;;;;;;;74.40;44.90;;;;;;;3.81;100.00;101571.66;105779;1254;72117;-76
2023/11/10 02:29:14;;;;;;;59.80;36.40;;;;;;;3.82;100.00;101572.16;105908;1251;60906;-74
2023/11/10 02:31:42;;;;;;;59.80;38.50;;;;;;;3.84;100.00;101573.52;105667;1255;59641;-75
2023/11/10 02:34:10;;;;;;;55.60;35.80;;;;;;;3.84;100.00;101574.55;105939;1251;72998;-75
2023/11/10 02:36:38;;;;;;;50.50;32.30;;;;;;;3.85;100.00;101570.55;106063;1256;63534;-74
2023/11/10 02:39:05;;;;;;;49.00;33.80;;;;;;;3.85;100.00;101574.72;106953;1251;74826;-72
2023/11/10 02:41:37;;;;;;;49.60;34.20;;;;;;;3.84;100.00;101576.29;106739;1255;60038;-74
2023/11/10 02:44:05;;;;;;;49.90;34.60;;;;;;;3.82;100.00;101574.93;105905;1257;59598;-75
2023/11/10 02:46:32;;;;;;;51.50;34.50;;;;;;;3.81;100.00;101583.26;105779;1251;73059;-73
2023/11/10 02:49:01;;;;;;;49.50;35.00;;;;;;;3.80;100.00;101587.77;105980;1256;62446;-74
2023/11/10 02:51:28;;;;;;;51.80;34.10;;;;;;;3.77;100.00;101591.79;105747;1258;72499;-73
2023/11/10 02:53:56;;;;;;;45.90;30.50;;;;;;;3.71;100.00;101589.80;105711;1257;60147;-73
2023/11/10 02:56:24;;;;;;;49.00;33.10;;;;;;;3.67;100.00;101589.70;105895;1251;59672;-75
2023/11/10 02:58:51;;;;;;;51.70;33.60;;;;;;;3.64;100.00;101589.76;105924;1256;73110;-77
2023/11/10 03:01:23;;;;;;;49.30;32.20;;;;;;;3.61;100.00;101588.23;105861;1257;63702;-75
2023/11/10 03:03:51;;;;;;;47.10;32.20;;;;;;;3.59;100.00;101590.86;105685;1254;71504;-76
2023/11/10 03:06:19;;;;;;;44.30;30.60;;;;;;;3.57;100.00;101592.98;105680;1253;60290;-75
2023/11/10 03:08:47;;;;;;;44.10;31.30;;;;;;;3.56;100.00;101590.91;105846;1253;59610;-73
2023/11/10 03:11:15;;;;;;;56.20;35.70;;;;;;;3.55;100.00;101593.88;105656;1256;73101;-76
2023/11/10 03:13:42;;;;;;;59.80;35.00;;;;;;;3.56;100.00;101593.16;105806;1256;63744;-72
2023/11/10 03:16:10;;;;;;;55.20;32.80;;;;;;;3.58;100.00;101595.90;105747;1251;72661;-74
2023/11/10 03:18:39;;;;;;;48.90;33.40;;;;;;;3.61;100.00;101600.00;105898;1257;59736;-75
2023/11/10 03:21:06;;;;;;;46.80;31.10;;;;;;;3.61;100.00;101598.77;105716;1251;60575;-73
2023/11/10 03:23:35;;;;;;;46.90;33.30;;;;;;;3.60;100.00;101601.05;105762;1256;71864;-75
2023/11/10 03:26:03;;;;;;;59.00;35.90;;;;;;;3.57;100.00;101603.86;105696;1251;64498;-73
2023/11/10 03:28:31;;;;;;;57.80;34.30;;;;;;;3.57;100.00;101603.17;105865;1256;72787;-72
2023/11/10 03:30:59;;;;;;;48.00;31.70;;;;;;;3.57;100.00;101602.83;105765;1253;59702;-73
2023/11/10 03:33:28;;;;;;;55.30;38.10;;;;;;;3.53;100.00;101604.63;105723;1251;59999;-74
2023/11/10 03:35:56;;;;;;;52.30;33.80;;;;;;;3.50;100.00;101602.91;105946;1251;71488;-75
2023/11/10 03:38:25;;;;;;;48.30;30.60;;;;;;;3.49;100.00;101602.23;105770;1251;63753;-77
2023/11/10 03:40:53;;;;;;;55.70;29.80;;;;;;;3.47;100.00;101601.25;105778;1255;72748;-74
2023/11/10 03:43:21;;;;;;;58.40;31.20;;;;;;;3.44;100.00;101602.50;105696;1253;61089;-73
2023/11/10 03:45:49;;;;;;;57.60;31.40;;;;;;;3.40;100.00;101603.23;105636;1251;60069;-73
2023/11/10 03:48:17;;;;;;;51.40;31.80;;;;;;;3.35;100.00;101610.23;105865;1256;71173;-73
2023/11/10 03:50:45;;;;;;;48.70;30.20;;;;;;;3.28;100.00;101604.62;105757;1251;63914;-73
2023/11/10 03:53:12;;;;;;;42.70;29.20;;;;;;;3.26;100.00;101610.70;105698;1253;71629;-73
2023/11/10 03:55:40;;;;;;;39.60;28.80;;;;;;;3.23;100.00;101614.20;105699;1255;59879;-75
2023/11/10 03:58:07;;;;;;;42.50;29.00;;;;;;;3.21;100.00;101617.67;105753;1251;60168;-75
2023/11/10 04:00:35;;;;;;;41.10;29.10;;;;;;;3.18;100.00;101618.24;105769;1253;71921;-74
2023/11/10 04:03:15;;;;;;;47.00;28.50;;;;;;;3.17;100.00;101627.05;105711;1251;63662;-74
2023/11/10 04:05:46;;;;;;;47.00;28.90;;;;;;;3.15;100.00;101630.72;105653;1253;71444;-73
2023/11/10 04:08:14;;;;;;;43.90;30.40;;;;;;;3.13;100.00;101630.57;105677;1253;60556;-75
2023/11/10 04:10:43;;;;;;;41.40;29.50;;;;;;;3.11;100.00;101629.56;105682;1256;59629;-76
2023/11/10 04:13:11;;;;;;;47.60;30.90;;;;;;;3.11;100.00;101631.29;105788;1251;75306;-75
2023/11/10 04:15:38;;;;;;;45.10;31.10;;;;;;;3.12;100.00;101638.88;105647;1258;63791;-75
2023/11/10 04:18:06;;;;;;;52.00;31.30;;;;;;;3.09;100.00;101641.34;105696;1253;71397;-73
2023/11/10 04:20:35;;;;;;;45.70;32.70;;;;;;;3.07;100.00;101647.75;105765;1254;60773;-74
2023/11/10 04:23:02;;;;;;;51.50;32.60;;;;;;;3.07;100.00;101649.31;105693;1256;60065;-74
2023/11/10 04:25:30;;;;;;;47.70;31.00;;;;;;;3.09;100.00;101652.90;105890;1251;73020;-76
2023/11/10 04:28:00;;;;;;;41.90;31.80;;;;;;;3.11;100.00;101659.95;105734;1257;63877;-74
2023/11/10 04:30:28;;;;;;;44.80;30.40;;;;;;;3.14;100.00;101661.15;105806;1253;71582;-75
2023/11/10 04:32:56;;;;;;;39.60;28.20;;;;;;;3.16;100.00;101662.16;105760;1253;59782;-76
2023/11/10 04:35:24;;;;;;;40.50;26.70;;;;;;;3.17;100.00;101662.83;105671;1257;59620;-75
2023/11/10 04:37:51;;;;;;;40.90;29.40;;;;;;;3.19;100.00;101665.23;105833;1253;73981;-75
2023/11/10 04:40:19;;;;;;;38.60;26.80;;;;;;;3.21;100.00;101670.39;105809;1251;62238;-73
2023/11/10 04:42:47;;;;;;;37.50;25.70;;;;;;;3.22;100.00;101675.20;105724;1253;72894;-74
2023/11/10 04:45:14;;;;;;;40.20;28.10;;;;;;;3.23;100.00;101677.45;105671;1254;60139;-74
2023/11/10 04:47:42;;;;;;;35.20;26.20;;;;;;;3.24;100.00;101678.98;105675;1257;59691;-73
2023/11/10 04:50:12;;;;;;;42.80;28.00;;;;;;;3.26;100.00;101680.87;105748;1257;73187;-75
2023/11/10 04:52:41;;;;;;;32.40;25.20;;;;;;;3.27;100.00;101679.30;105741;1257;63520;-73
2023/11/10 04:55:11;;;;;;;38.10;27.60;;;;;;;3.30;100.00;101679.79;105904;1253;71199;-75
2023/11/10 04:57:39;;;;;;;38.10;27.40;;;;;;;3.33;100.00;101681.81;105737;1254;59878;-77
2023/11/10 05:00:08;;;;;;;53.90;33.70;;;;;;;3.36;100.00;101684.38;105735;1257;60990;-75
2023/11/10 05:02:36;;;;;;;41.80;28.80;;;;;;;3.38;100.00;101690.56;105940;1251;72205;-75
2023/11/10 05:05:03;;;;;;;35.70;25.70;;;;;;;3.40;100.00;101689.33;105750;1251;62081;-75
2023/11/10 05:07:31;;;;;;;50.00;29.40;;;;;;;3.41;100.00;101689.99;107001;1251;71397;-76
2023/11/10 05:10:00;;;;;;;43.00;28.50;;;;;;;3.43;100.00;101695.67;106010;1254;61020;-75
2023/11/10 05:12:29;;;;;;;38.10;27.30;;;;;;;3.44;100.00;101698.95;105971;1251;60313;-76
2023/11/10 05:14:57;;;;;;;39.40;27.00;;;;;;;3.46;100.00;101701.35;105681;1257;73883;-76
2023/11/10 05:17:27;;;;;;;35.80;25.20;;;;;;;3.49;100.00;101703.56;105802;1257;63274;-75
2023/11/10 05:19:55;;;;;;;38.10;26.30;;;;;;;3.52;100.00;101705.59;105757;1257;72700;-75
2023/11/10 05:22:22;;;;;;;40.70;27.90;;;;;;;3.56;100.00;101711.08;105795;1253;60883;-75
2023/11/10 05:24:50;;;;;;;36.10;25.90;;;;;;;3.60;100.00;101717.94;105949;1251;60866;-76
2023/11/10 05:27:17;;;;;;;35.10;24.40;;;;;;;3.64;100.00;101723.92;105619;1251;74100;-76
2023/11/10 05:29:45;;;;;;;35.60;23.20;;;;;;;3.68;100.00;101726.65;105609;1251;63610;-75
2023/11/10 05:32:14;;;;;;;33.40;24.30;;;;;;;3.72;100.00;101729.53;105930;1253;72687;-75
2023/11/10 05:34:43;;;;;;;35.70;25.10;;;;;;;3.75;100.00;101732.08;106451;1254;60489;-75
2023/11/10 05:37:11;;;;;;;33.80;24.50;;;;;;;3.79;100.00;101738.60;105717;1253;60999;-76
2023/11/10 05:39:38;;;;;;;29.30;22.10;;;;;;;3.84;100.00;101739.41;105703;1251;72677;-75
2023/11/10 05:42:06;;;;;;;28.10;20.40;;;;;;;3.88;100.00;101743.51;105697;1251;61822;-77
2023/11/10 05:44:34;;;;;;;29.90;23.10;;;;;;;3.93;100.00;101746.36;105664;1253;72746;-75
2023/11/10 05:47:01;;;;;;;30.20;22.70;;;;;;;3.99;100.00;101746.45;105987;1253;60543;-76
2023/11/10 05:49:29;;;;;;;29.80;21.20;;;;;;;4.07;100.00;101745.98;105846;1258;60560;-76
2023/11/10 05:51:58;;;;;;;27.20;21.90;;;;;;;4.21;100.00;101745.95;105680;1257;74030;-75
2023/11/10 05:54:26;;;;;;;24.50;20.70;;;;;;;4.40;100.00;101743.05;105773;1257;63660;-75
2023/11/10 05:56:53;;;;;;;35.50;26.10;;;;;;;4.57;100.00;101742.42;105730;1253;72306;-75
2023/11/10 05:59:23;;;;;;;28.40;24.00;;;;;;;4.69;100.00;101745.67;105775;1257;61206;-76
2023/11/10 06:01:50;;;;;;;27.30;20.20;;;;;;;4.76;100.00;101749.19;106180;1251;60512;-76
2023/11/10 06:04:23;;;;;;;22.80;17.70;;;;;;;4.82;100.00;101750.66;106274;1257;72942;-76
2023/11/10 06:07:01;;;;;;;24.50;18.80;;;;;;;4.86;100.00;101751.97;105848;1257;62731;-75
2023/11/10 06:09:33;;;;;;;25.70;19.40;;;;;;;4.89;100.00;101755.90;105726;1251;72702;-76
2023/11/10 06:12:02;;;;;;;23.50;19.10;;;;;;;4.92;100.00;101757.05;105735;1253;60793;-77
2023/11/10 06:14:30;;;;;;;23.10;18.10;;;;;;;4.96;100.00;101756.30;105664;1251;60538;-73
2023/11/10 06:16:58;;;;;;;23.10;18.80;;;;;;;4.99;100.00;101760.73;105747;1251;73117;-75
2023/11/10 06:19:28;;;;;;;24.70;19.00;;;;;;;5.04;100.00;101769.66;106252;1251;62432;-77
2023/11/10 06:21:56;;;;;;;24.90;20.90;;;;;;;5.07;100.00;101769.60;105834;1257;71811;-75
2023/11/10 06:24:24;;;;;;;22.60;19.50;;;;;;;5.10;100.00;101773.02;105733;1256;60870;-75
2023/11/10 06:26:51;;;;;;;21.90;18.90;;;;;;;5.13;100.00;101773.49;105894;1251;60467;-74
2023/11/10 06:29:19;;;;;;;25.20;19.60;;;;;;;5.18;100.00;101773.73;105750;1258;72932;-75
2023/11/10 06:31:48;;;;;;;31.70;19.50;;;;;;;5.23;100.00;101771.91;105788;1255;65032;-75
2023/11/10 06:34:15;;;;;;;24.50;19.10;;;;;;;5.30;100.00;101775.75;106106;1254;71635;-76
2023/11/10 06:36:43;;;;;;;22.40;18.70;;;;;;;5.37;100.00;101774.77;105768;1253;60516;-77
2023/11/10 06:39:11;;;;;;;24.20;19.80;;;;;;;5.44;100.00;101773.23;105770;1257;60541;-76
2023/11/10 06:41:38;;;;;;;23.90;19.90;;;;;;;5.51;100.00;101776.55;105774;1251;73853;-75
2023/11/10 06:44:08;;;;;;;26.30;20.60;;;;;;;5.58;100.00;101776.76;105821;1253;62300;-75
2023/11/10 06:46:35;;;;;;;27.10;20.90;;;;;;;5.66;100.00;101775.04;105744;1253;72667;-75
2023/11/10 06:49:03;;;;;;;26.30;20.50;;;;;;;5.73;100.00;101776.80;105803;1258;60910;-77
2023/11/10 06:51:32;;;;;;;44.20;29.40;;;;;;;5.78;100.00;101778.07;105852;1251;60573;-75
2023/11/10 06:54:00;;;;;;;35.20;28.00;;;;;;;5.84;100.00;101784.71;105776;1257;73840;-76
2023/11/10 06:56:28;;;;;;;28.60;23.00;;;;;;;5.90;100.00;101787.38;105826;1258;64345;-76
2023/11/10 06:58:55;;;;;;;27.10;22.20;;;;;;;5.97;100.00;101791.42;105748;1257;71262;-77
2023/11/10 07:01:23;;;;;;;26.10;20.60;;;;;;;6.03;100.00;101793.19;105918;1254;60604;-78
2023/11/10 07:03:51;;;;;;;30.20;22.10;;;;;;;6.10;100.00;101798.94;105814;1251;60349;-77
2023/11/10 07:06:19;;;;;;;26.50;20.90;;;;;;;6.15;100.00;101798.65;105765;1253;73355;-78
2023/11/10 07:08:47;;;;;;;23.20;19.60;;;;;;;6.16;100.00;101802.63;105800;1258;63442;-77
2023/11/10 07:11:14;;;;;;;22.30;19.50;;;;;;;6.15;100.00;101809.23;105867;1257;73466;-77
2023/11/10 07:13:42;;;;;;;22.50;19.60;;;;;;;6.15;100.00;101809.41;105803;1253;62634;-77
2023/11/10 07:16:10;;;;;;;22.50;18.10;;;;;;;6.16;100.00;101811.46;105848;1257;60577;-76
2023/11/10 07:18:38;;;;;;;25.90;17.30;;;;;;;6.18;100.00;101812.30;105924;1251;73869;-77
2023/11/10 07:21:10;;;;;;;26.30;19.60;;;;;;;6.18;100.00;101812.30;105899;1254;63844;-75
2023/11/10 07:23:38;;;;;;;25.70;19.80;;;;;;;6.20;100.00;101809.13;105717;1251;72645;-76
2023/11/10 07:26:05;;;;;;;24.00;19.90;;;;;;;6.24;100.00;101812.17;105852;1253;61179;-75
2023/11/10 07:28:33;;;;;;;22.00;19.60;;;;;;;6.28;100.00;101809.65;105690;1253;60516;-76
2023/11/10 07:31:00;;;;;;;25.80;20.80;;;;;;;6.32;100.00;101813.02;105696;1258;72959;-76
2023/11/10 07:33:30;;;;;;;26.90;21.10;;;;;;;6.37;100.00;101818.64;105748;1258;63558;-76
2023/11/10 07:35:59;;;;;;;26.20;21.10;;;;;;;6.40;100.00;101815.08;105702;1258;71542;-76
2023/11/10 07:38:28;;;;;;;29.60;22.00;;;;;;;6.45;100.00;101817.23;105713;1256;60805;-75
2023/11/10 07:40:57;;;;;;;27.10;21.70;;;;;;;6.51;100.00;101814.17;105794;1257;60935;-74
2023/11/10 07:43:24;;;;;;;29.30;21.40;;;;;;;6.57;100.00;101811.92;105688;1257;76581;-75
2023/11/10 07:45:53;;;;;;;26.70;22.00;;;;;;;6.64;100.00;101814.17;105788;1255;62338;-76
2023/11/10 07:48:21;;;;;;;26.50;22.60;;;;;;;6.72;100.00;101813.13;105675;1253;71388;-76
2023/11/10 07:50:49;;;;;;;27.40;24.00;;;;;;;6.81;100.00;101815.51;105699;1258;60458;-75
2023/11/10 07:53:16;;;;;;;28.40;21.10;;;;;;;6.89;100.00;101818.08;105812;1253;60489;-75
2023/11/10 07:55:44;;;;;;;29.50;23.60;;;;;;;6.99;100.00;101824.43;105724;1253;73132;-77
2023/11/10 07:58:12;;;;;;;27.50;23.60;;;;;;;7.08;100.00;101824.05;105854;1257;63561;-77
2023/11/10 08:00:39;;;;;;;31.80;23.60;;;;;;;7.16;100.00;101826.27;105899;1251;72808;-77
2023/11/10 08:03:07;;;;;;;31.00;23.90;;;;;;;7.25;100.00;101826.35;105703;1253;60873;-76
2023/11/10 08:05:34;;;;;;;28.00;23.70;;;;;;;7.34;100.00;101830.13;105862;1256;60309;-76
2023/11/10 08:08:05;;;;;;;31.70;24.30;;;;;;;7.42;100.00;101826.09;105736;1258;72105;-76
2023/11/10 08:10:33;;;;;;;30.90;23.70;;;;;;;7.50;100.00;101820.64;105714;1257;62452;-77
2023/11/10 08:13:01;;;;;;;28.70;24.60;;;;;;;7.58;100.00;101822.68;105860;1256;72674;-78
2023/11/10 08:15:29;;;;;;;30.40;23.70;;;;;;;7.66;100.00;101823.51;105912;1256;61473;-75
2023/11/10 08:17:57;;;;;;;26.80;22.40;;;;;;;7.74;100.00;101823.98;105745;1253;60385;-78
2023/11/10 08:20:26;;;;;;;28.00;22.00;;;;;;;7.81;100.00;101824.11;105833;1251;73978;-75
2023/11/10 08:22:54;;;;;;;28.00;22.70;;;;;;;7.86;100.00;101828.13;105839;1256;62119;-77
2023/11/10 08:25:22;;;;;;;26.40;22.90;;;;;;;7.93;100.00;101823.95;105710;1257;71703;-77
2023/11/10 08:27:49;;;;;;;26.60;22.20;;;;;;;7.99;100.00;101825.32;105725;1258;60883;-76
2023/11/10 08:30:17;;;;;;;25.50;22.50;;;;;;;8.05;100.00;101823.21;105826;1251;60625;-75
2023/11/10 08:32:44;;;;;;;26.50;22.30;;;;;;;8.13;100.00;101828.58;106486;1257;74305;-75
2023/11/10 08:35:16;;;;;;;28.80;22.00;;;;;;;8.19;100.00;101825.59;105771;1257;64181;-76
2023/11/10 08:37:46;;;;;;;28.50;23.80;;;;;;;8.26;100.00;101817.89;105921;1256;72953;-76
2023/11/10 08:40:15;;;;;;;28.80;22.40;;;;;;;8.32;100.00;101819.79;105872;1253;61717;-76
2023/11/10 08:42:42;;;;;;;25.00;21.20;;;;;;;8.38;100.00;101814.57;105764;1257;60939;-76
2023/11/10 08:45:11;;;;;;;27.80;22.80;;;;;;;8.44;100.00;101810.39;105843;1252;76099;-77
2023/11/10 08:47:40;;;;;;;26.30;23.40;;;;;;;8.48;100.00;101812.16;105826;1253;65402;-76
2023/11/10 08:50:10;;;;;;;25.10;21.00;;;;;;;8.55;100.00;101815.95;105837;1254;74586;-76
2023/11/10 08:52:41;;;;;;;24.60;20.20;;;;;;;8.63;100.00;101814.67;105820;1258;61140;-77
2023/11/10 08:55:13;;;;;;;24.80;20.20;;;;;;;8.69;100.00;101814.30;105769;1251;60837;-75
2023/11/10 08:57:41;;;;;;;28.80;20.60;;;;;;;8.71;100.00;101815.80;105685;1251;74664;-77
2023/11/10 09:00:11;;;;;;;26.40;21.30;;;;;;;8.74;100.00;101810.30;105637;1257;63306;-76
2023/11/10 09:02:38;;;;;;;27.20;22.30;;;;;;;8.78;100.00;101808.42;105751;1253;73668;-76
2023/11/10 09:05:06;;;;;;;26.20;21.20;;;;;;;8.84;100.00;101803.52;105719;1253;61900;-77
2023/11/10 09:07:34;;;;;;;23.40;20.90;;;;;;;8.89;100.00;101799.66;105700;1253;60947;-76
2023/11/10 09:10:02;;;;;;;26.90;21.10;;;;;;;8.94;100.00;101804.02;105689;1258;73888;-74
2023/11/10 09:12:32;;;;;;;23.30;20.50;;;;;;;8.98;100.00;101793.27;105747;1257;62319;-76
2023/11/10 09:15:00;;;;;;;26.50;20.60;;;;;;;9.04;100.00;101787.46;105665;1253;73806;-78
2023/11/10 09:17:28;;;;;;;26.00;20.30;;;;;;;9.15;100.00;101785.02;105811;1253;62581;-77
2023/11/10 09:19:56;;;;;;;34.80;21.10;;;;;;;9.27;100.00;101784.73;105697;1257;61145;-75
2023/11/10 09:22:24;;;;;;;21.40;19.10;;;;;;;9.42;100.00;101778.42;105765;1255;72652;-76
2023/11/10 09:24:52;;;;;;;18.50;16.40;;;;;;;9.59;100.00;101780.25;105873;1254;64677;-76
2023/11/10 09:27:19;;;;;;;18.90;16.30;;;;;;;9.75;100.00;101778.97;105893;1257;71820;-75
2023/11/10 09:29:47;;;;;;;19.20;15.50;;;;;;;9.99;100.00;101774.91;105788;1253;61978;-77
2023/11/10 09:32:15;;;;;;;17.20;15.30;;;;;;;10.37;100.00;101769.39;105820;1257;60547;-79
2023/11/10 09:34:42;;;;;;;16.00;14.30;;;;;;;10.94;100.00;101771.23;105884;1253;74951;-75
2023/11/10 09:37:11;;;;;;;14.90;13.30;;;;;;;11.66;100.00;101773.84;105717;1253;62682;-78
2023/11/10 09:39:39;;;;;;;14.70;12.40;;;;;;;12.46;100.00;101764.25;105688;1258;73999;-77
2023/11/10 09:42:08;;;;;;;13.90;11.00;;;;;;;13.26;100.00;101760.36;105677;1254;61204;-76
2023/11/10 09:44:37;;;;;;;16.10;13.00;;;;;;;13.99;100.00;101761.14;105684;1252;60510;-76
2023/11/10 09:47:05;;;;;;;12.40;11.20;;;;;;;14.69;100.00;101756.60;105806;1253;74231;-76
2023/11/10 09:49:34;;;;;;;12.30;11.00;;;;;;;15.33;100.00;101753.81;105806;1258;63694;-77
2023/11/10 09:52:02;;;;;;;14.20;12.30;;;;;;;15.92;100.00;101754.02;105868;1253;72494;-78
2023/11/10 09:54:31;;;;;;;13.00;11.70;;;;;;;16.46;100.00;101751.73;105733;1253;60670;-76
2023/11/10 09:56:59;;;;;;;12.80;11.50;;;;;;;16.87;100.00;101745.27;105778;1257;60452;-76
2023/11/10 09:59:27;;;;;;;13.80;11.50;;;;;;;17.18;100.00;101746.83;105692;1258;75305;-78
2023/11/10 10:01:55;;;;;;;10.80;9.60;;;;;;;17.44;97.30;101746.43;105574;1258;62820;-77
2023/11/10 10:04:23;;;;;;;11.70;10.50;;;;;;;17.57;91.67;101744.06;105525;1258;70673;-77
2023/11/10 10:06:50;;;;;;;12.10;10.10;;;;;;;17.64;88.25;101747.63;105755;1255;61980;-77
2023/11/10 10:09:18;;;;;;;11.50;10.30;;;;;;;17.64;83.89;101749.24;105517;1258;60413;-76
2023/11/10 10:11:54;;;;;;;13.50;11.40;;;;;;;17.63;83.60;101748.13;105889;1256;76056;-79
2023/11/10 10:14:22;;;;;;;13.10;10.10;;;;;;;17.63;82.75;101743.83;105817;1255;63342;-78
2023/11/10 10:16:55;;;;;;;11.20;10.00;;;;;;;17.68;81.47;101743.83;105931;1253;71601;-76
2023/11/10 10:19:27;;;;;;;11.90;10.70;;;;;;;17.78;78.56;101744.16;105784;1258;60556;-76
2023/11/10 10:22:02;;;;;;;11.90;10.70;;;;;;;17.85;79.72;101737.02;105778;1258;60986;-77
2023/11/10 10:24:31;;;;;;;11.60;10.40;;;;;;;17.94;74.00;101741.95;105766;1256;72621;-81
2023/11/10 10:27:01;;;;;;;11.30;10.00;;;;;;;17.81;70.47;101744.84;105756;1258;62298;-77
2023/11/10 10:29:36;;;;;;;12.30;10.90;;;;;;;17.54;71.34;101743.05;105792;1258;72832;-79
2023/11/10 10:32:04;;;;;;;12.80;10.70;;;;;;;17.20;72.53;101737.71;105800;1253;60602;-79
2023/11/10 10:34:31;;;;;;;10.30;9.10;;;;;;;16.86;73.92;101733.35;105808;1258;60576;-78
2023/11/10 10:36:59;;;;;;;11.80;10.30;;;;;;;16.45;76.39;101733.95;105773;1256;74862;-78
2023/11/10 10:39:28;;;;;;;13.80;11.60;;;;;;;16.15;80.57;101735.08;105724;1252;62549;-77
2023/11/10 10:41:57;;;;;;;12.40;10.10;;;;;;;16.07;85.56;101737.53;105757;1253;73269;-78
2023/11/10 10:44:25;;;;;;;11.60;9.20;;;;;;;16.14;84.37;101734.94;105728;1256;60458;-78
2023/11/10 10:46:53;;;;;;;12.00;8.70;;;;;;;16.26;83.55;101727.98;105761;1258;60964;-79
2023/11/10 10:49:20;;;;;;;8.70;7.70;;;;;;;16.38;78.41;101727.02;105715;1251;73859;-80
2023/11/10 10:51:51;;;;;;;11.30;8.60;;;;;;;16.35;74.15;101725.59;105846;1253;64583;-78
2023/11/10 10:54:20;;;;;;;10.60;8.40;;;;;;;16.31;76.62;101727.27;109655;1253;73094;-78
2023/11/10 10:56:48;;;;;;;9.10;7.50;;;;;;;16.24;76.87;101728.31;109589;1253;58786;-77
2023/11/10 10:59:16;;;;;;;8.90;6.80;;;;;;;15.95;77.02;101733.70;109670;1251;61637;-78
2023/11/10 11:01:44;;;;;;;8.90;7.70;;;;;;;15.60;80.36;101736.64;109654;1251;75400;-76
2023/11/10 11:04:51;;;;;;;9.70;8.00;;;;;;;15.30;85.84;101734.83;109654;1251;64356;-78
2023/11/10 11:07:36;;;;;;;9.80;8.30;;;;;;;15.06;93.02;101731.02;109597;1256;72386;-77